メインページ
METAR-TAF:

METAR-TAF

空港 :

オタワ, オンタリオ州, カナダ

オタワ・マクドナルド・カルティエ国際空港

緯度: 45-19N, 経度: 075-40W, 海抜: 116m

現時点の気象観測

当レポートは18分前の23:00(UTC)に作成
西/南西の風 5kt
気温 21°C
湿度 49%
気圧 1011 hPa
視程: 24.1km
高度7000ftの雲はほとんどない
高度18000ftの雲はほとんどない

METAR: CYOW 272300Z 24005KT 15SM FEW070 FEW180 21/10 A2986 RMK AC1AC1 SLP112 DENSITY ALT 1200FT

時間: 19:18 (23:18 UTC)

予報

当レポートは2時間39分前の20:39(UTC)に作成
予報は27日の 21時(UTC)から 28日の 18時(UTC)まで有効
変向風 3kt
視程: 10km
高度5000ftの雲はほとんどない
高度14000ftの雲は散在している
28日の 0800時(UTC)から
変向風 3kt
視程: 9.7km
高度6000ftの雲はほとんどない
確率 30%
28日の 08時(UTC)から 28日の 11時(UTC)まで
視程: 0.8km
28日の 1200時(UTC)から
南西の風 5kt
視程: 10km
高度5000ftの雲はほとんどない

TAF: CYOW 272039Z 2721/2818 VRB03KT P6SM FEW050 SCT140 FM280800 VRB03KT 6SM BR FEW060 PROB30 2808/2811 1/2SM FG FM281200 23005KT P6SM FEW050 RMK NXT FCST BY 280000Z

4,000以上の空港の気象観測と天気予報(METAR報とTAF報)

利用可能な観測所は地図上に黄色い丸と赤い丸で示す。

丸の上にカーソルを重ねると観測所名を参照できる。

次にクリックすると気象観測と天気予報を参照できる。

マップの切り替え:黒色「×」印の緑ボタンをクリックして拡大、「-」印の緑ボタンをクリックして縮小、緑色の三角印をクリックして隣りの地図に切り替え


METAR-TAF: